Pueblo Of Acoma, NM (87034)

16:21 MDT le 23 septembre 2014 (GMT -0600)
RAWS LAGUNA NM US | Change Station
CLOSE
Current Station
Stations météorologiques personnelles
Location: Laguna, NM
Altitude: 5805 ft
Stations météo à proximité

Alt. 5805 ft 35.05 °N, 107.42 °W | Updated 48 minutes ago

Partiellement nuageux
Partiellement nuageux
78 ° F
Paraît 79 ° F
N
6
Vent Variable Vent de Est
Gusts 14.0 mph

Aujourd'hui
Haut(e) -- | Bas -- ° F
--% Risque de précip.
Hier
Haut(e) -- | Bas -- ° F
Precip. -- pouce
6:59 AM 7:05 PM
Lune descendante, 0% visible
Pression 30.24 pouce
Visibilité 10.0 Miles terrestres
Nuages Nuages épars 10000 ft
indice de chaleur 79 ° F
Point de rosée 55 ° F
Humidité 45%
Précipitations 0.07 pouce
Profondeur de la couche neigeuse 0 in , 0 in , 2 in
UV 4 sur 12
Pollen 6.30 sur 12
Qualité de l'air Non disponible.
Flu Activity Non disponible.
METAR KGNT 232156Z AUTO 03005KT 10SM SCT100 27/04 A3024 RMK AO2

More Conditions Fewer Conditions

Pression 30.24 pouce
Visibilité 10.0 Miles terrestres
Nuages Nuages épars 10000 ft
indice de chaleur 79 ° F
Point de rosée 55 ° F
Humidité 45%
Précipitations 0.07 pouce
Profondeur de la couche neigeuse 0 in , 0 in , 2 in
UV 4 sur 12
Pollen 6.30 sur 12
Qualité de l'air Non disponible.
Flu Activity Non disponible.
METAR KGNT 232156Z AUTO 03005KT 10SM SCT100 27/04 A3024 RMK AO2

More Conditions Fewer Conditions

10-Day Weather Forecast

Almanac

Astronomie

Sep. 23, 2014 Lever Coucher
Temps réel 06:59 MDT 19:05 MDT
Crépuscule civil 06:33 MDT 19:30 MDT
Crépuscule nautique 06:04 MDT 20:00 MDT
Crépuscule astronomique 05:34 MDT 20:30 MDT
Lune 06:26 MDT 18:46 MDT
Durée de lumière visible 12h 57m
Longueur du jour
12h 06m
Tomorrow will be 2m 10s shorter.
Lune descendante, 0% of the Moon is Illuminated
Aujourd'hui
Lune descendante
Sep 24
Nouveau
Oct 1
Premier quartier
Oct 8
Pleine lune
Oct 15
Dernier quartier

Extrêmes aujourd'hui

State Highs State Lows

Community

WunderPhotos

Upload Photos

1,755,801 Photos téléchargées !

WunderBlogs® & News

Nearby

Épaisseur de neige

Station Depth Altitude
Silver Creek Divide 0 in 9000 ft
Hopewell 0 in 10000 ft
Red River Pass #2 0 in 9850 ft
McKnight Cabin 0 in 9240 ft
Wesner Springs 2 in 11120 ft

Activité sismique

Ville Distance Mag. Time & Date
No recent earthquake activity has been reported nearby.
Minimum magnitude displayed is 2.5.

Températures des eaux côtières

Lieu Température
Aucun rapport de station

Stations météo à proximité